sensor_id;sensor_type;location;lat;lon;timestamp;temperature;humidity
14409;DHT22;7289;50.706;4.992;2023-08-01T00:01:53;17.90;99.90
14409;DHT22;7289;50.706;4.992;2023-08-01T00:04:22;17.80;99.90
14409;DHT22;7289;50.706;4.992;2023-08-01T00:06:52;17.80;99.90
14409;DHT22;7289;50.706;4.992;2023-08-01T00:09:20;17.90;99.90
14409;DHT22;7289;50.706;4.992;2023-08-01T00:11:48;17.90;99.90
14409;DHT22;7289;50.706;4.992;2023-08-01T00:14:17;17.80;99.90
14409;DHT22;7289;50.706;4.992;2023-08-01T00:16:47;17.70;99.90
14409;DHT22;7289;50.706;4.992;2023-08-01T00:19:16;17.70;99.90
14409;DHT22;7289;50.706;4.992;2023-08-01T00:21:44;17.60;99.90
14409;DHT22;7289;50.706;4.992;2023-08-01T00:24:15;17.60;99.90
14409;DHT22;7289;50.706;4.992;2023-08-01T00:26:43;17.60;99.90
14409;DHT22;7289;50.706;4.992;2023-08-01T00:29:11;17.50;99.90
14409;DHT22;7289;50.706;4.992;2023-08-01T00:31:40;17.50;99.90
14409;DHT22;7289;50.706;4.992;2023-08-01T00:34:08;17.40;99.90
14409;DHT22;7289;50.706;4.992;2023-08-01T00:36:36;17.30;99.90
14409;DHT22;7289;50.706;4.992;2023-08-01T00:39:05;17.30;99.90
14409;DHT22;7289;50.706;4.992;2023-08-01T00:41:35;17.30;99.90
14409;DHT22;7289;50.706;4.992;2023-08-01T00:44:03;17.30;99.90
14409;DHT22;7289;50.706;4.992;2023-08-01T00:46:32;17.20;99.90
14409;DHT22;7289;50.706;4.992;2023-08-01T00:49:01;17.20;99.90
14409;DHT22;7289;50.706;4.992;2023-08-01T00:51:31;17.30;99.90
14409;DHT22;7289;50.706;4.992;2023-08-01T00:54:01;17.20;99.90
14409;DHT22;7289;50.706;4.992;2023-08-01T00:56:30;17.20;99.90
14409;DHT22;7289;50.706;4.992;2023-08-01T00:59:00;17.30;99.90
14409;DHT22;7289;50.706;4.992;2023-08-01T01:01:28;17.20;99.90
14409;DHT22;7289;50.706;4.992;2023-08-01T01:03:57;17.20;99.90
14409;DHT22;7289;50.706;4.992;2023-08-01T01:06:30;17.20;99.90
14409;DHT22;7289;50.706;4.992;2023-08-01T01:09:00;17.20;99.90
14409;DHT22;7289;50.706;4.992;2023-08-01T01:11:32;17.20;99.90
14409;DHT22;7289;50.706;4.992;2023-08-01T01:14:02;17.20;99.90
14409;DHT22;7289;50.706;4.992;2023-08-01T01:16:30;17.20;99.90
14409;DHT22;7289;50.706;4.992;2023-08-01T01:19:00;17.10;99.90
14409;DHT22;7289;50.706;4.992;2023-08-01T01:21:30;17.00;99.90
14409;DHT22;7289;50.706;4.992;2023-08-01T01:24:00;17.10;99.90
14409;DHT22;7289;50.706;4.992;2023-08-01T01:26:30;17.10;99.90
14409;DHT22;7289;50.706;4.992;2023-08-01T01:29:02;17.00;99.90
14409;DHT22;7289;50.706;4.992;2023-08-01T01:31:31;17.00;99.90
14409;DHT22;7289;50.706;4.992;2023-08-01T01:34:01;16.90;99.90
14409;DHT22;7289;50.706;4.992;2023-08-01T01:36:31;16.90;99.90
14409;DHT22;7289;50.706;4.992;2023-08-01T01:38:59;16.80;99.90
14409;DHT22;7289;50.706;4.992;2023-08-01T01:41:27;16.80;99.90
14409;DHT22;7289;50.706;4.992;2023-08-01T01:43:56;16.80;99.90
14409;DHT22;7289;50.706;4.992;2023-08-01T01:46:24;16.90;99.90
14409;DHT22;7289;50.706;4.992;2023-08-01T01:48:52;16.90;99.90
14409;DHT22;7289;50.706;4.992;2023-08-01T01:51:21;16.80;99.90
14409;DHT22;7289;50.706;4.992;2023-08-01T01:53:51;16.80;99.90
14409;DHT22;7289;50.706;4.992;2023-08-01T01:56:19;16.80;99.90
14409;DHT22;7289;50.706;4.992;2023-08-01T01:58:48;16.90;99.90
14409;DHT22;7289;50.706;4.992;2023-08-01T02:01:16;16.90;99.90
14409;DHT22;7289;50.706;4.992;2023-08-01T02:03:44;17.00;99.90
14409;DHT22;7289;50.706;4.992;2023-08-01T02:06:14;17.00;99.90
14409;DHT22;7289;50.706;4.992;2023-08-01T02:08:43;16.90;99.90
14409;DHT22;7289;50.706;4.992;2023-08-01T02:11:13;17.00;99.90
14409;DHT22;7289;50.706;4.992;2023-08-01T02:13:41;17.00;99.90
14409;DHT22;7289;50.706;4.992;2023-08-01T02:16:10;17.10;99.90
14409;DHT22;7289;50.706;4.992;2023-08-01T02:18:39;17.10;99.90
14409;DHT22;7289;50.706;4.992;2023-08-01T02:21:08;17.00;99.90
14409;DHT22;7289;50.706;4.992;2023-08-01T02:23:36;16.90;99.90
14409;DHT22;7289;50.706;4.992;2023-08-01T02:26:05;16.80;99.90
14409;DHT22;7289;50.706;4.992;2023-08-01T02:28:36;16.70;99.90
14409;DHT22;7289;50.706;4.992;2023-08-01T02:31:05;16.70;99.90
14409;DHT22;7289;50.706;4.992;2023-08-01T02:33:33;16.70;99.90
14409;DHT22;7289;50.706;4.992;2023-08-01T02:36:02;16.70;99.90
14409;DHT22;7289;50.706;4.992;2023-08-01T02:38:30;16.70;99.90
14409;DHT22;7289;50.706;4.992;2023-08-01T02:40:59;16.70;99.90
14409;DHT22;7289;50.706;4.992;2023-08-01T02:43:28;16.70;99.90
14409;DHT22;7289;50.706;4.992;2023-08-01T02:45:58;16.70;99.90
14409;DHT22;7289;50.706;4.992;2023-08-01T02:48:28;16.60;99.90
14409;DHT22;7289;50.706;4.992;2023-08-01T02:50:56;16.60;99.90
14409;DHT22;7289;50.706;4.992;2023-08-01T02:53:24;16.70;99.90
14409;DHT22;7289;50.706;4.992;2023-08-01T02:55:52;16.70;99.90
14409;DHT22;7289;50.706;4.992;2023-08-01T02:58:21;16.70;99.90
14409;DHT22;7289;50.706;4.992;2023-08-01T03:00:49;16.80;99.90
14409;DHT22;7289;50.706;4.992;2023-08-01T03:03:19;16.80;99.90
14409;DHT22;7289;50.706;4.992;2023-08-01T03:05:47;16.80;99.90
14409;DHT22;7289;50.706;4.992;2023-08-01T03:08:16;16.80;99.90
14409;DHT22;7289;50.706;4.992;2023-08-01T03:10:44;16.80;99.90
14409;DHT22;7289;50.706;4.992;2023-08-01T03:13:13;16.90;99.90
14409;DHT22;7289;50.706;4.992;2023-08-01T03:15:41;16.90;99.90
14409;DHT22;7289;50.706;4.992;2023-08-01T03:18:10;16.80;99.90
14409;DHT22;7289;50.706;4.992;2023-08-01T03:20:39;16.80;99.90
14409;DHT22;7289;50.706;4.992;2023-08-01T03:23:08;16.80;99.90
14409;DHT22;7289;50.706;4.992;2023-08-01T03:25:36;16.80;99.90
14409;DHT22;7289;50.706;4.992;2023-08-01T03:28:05;16.80;99.90
14409;DHT22;7289;50.706;4.992;2023-08-01T03:30:33;16.80;99.90
14409;DHT22;7289;50.706;4.992;2023-08-01T03:33:02;16.80;99.90
14409;DHT22;7289;50.706;4.992;2023-08-01T03:35:30;16.80;99.90
14409;DHT22;7289;50.706;4.992;2023-08-01T03:38:00;16.80;99.90
14409;DHT22;7289;50.706;4.992;2023-08-01T03:40:29;16.90;99.90
14409;DHT22;7289;50.706;4.992;2023-08-01T03:42:57;16.90;99.90
14409;DHT22;7289;50.706;4.992;2023-08-01T03:45:26;16.80;99.90
14409;DHT22;7289;50.706;4.992;2023-08-01T03:47:54;16.80;99.90
14409;DHT22;7289;50.706;4.992;2023-08-01T03:50:23;16.80;99.90
14409;DHT22;7289;50.706;4.992;2023-08-01T03:52:51;16.70;99.90
14409;DHT22;7289;50.706;4.992;2023-08-01T03:55:21;16.70;99.90
14409;DHT22;7289;50.706;4.992;2023-08-01T03:57:49;16.70;99.90
14409;DHT22;7289;50.706;4.992;2023-08-01T04:00:18;16.70;99.90
14409;DHT22;7289;50.706;4.992;2023-08-01T04:02:46;16.70;99.90
14409;DHT22;7289;50.706;4.992;2023-08-01T04:05:17;16.70;99.90
14409;DHT22;7289;50.706;4.992;2023-08-01T04:07:46;16.60;99.90
14409;DHT22;7289;50.706;4.992;2023-08-01T04:10:14;16.60;99.90
14409;DHT22;7289;50.706;4.992;2023-08-01T04:12:44;16.50;99.90
14409;DHT22;7289;50.706;4.992;2023-08-01T04:15:12;16.40;99.90
14409;DHT22;7289;50.706;4.992;2023-08-01T04:17:40;16.40;99.90
14409;DHT22;7289;50.706;4.992;2023-08-01T04:20:09;16.30;99.90
14409;DHT22;7289;50.706;4.992;2023-08-01T04:22:38;16.40;99.90
14409;DHT22;7289;50.706;4.992;2023-08-01T04:25:07;16.50;99.90
14409;DHT22;7289;50.706;4.992;2023-08-01T04:27:35;16.50;99.90
14409;DHT22;7289;50.706;4.992;2023-08-01T04:30:07;16.50;99.90
14409;DHT22;7289;50.706;4.992;2023-08-01T04:32:35;16.50;99.90
14409;DHT22;7289;50.706;4.992;2023-08-01T04:35:04;16.50;99.90
14409;DHT22;7289;50.706;4.992;2023-08-01T04:37:33;16.50;99.90
14409;DHT22;7289;50.706;4.992;2023-08-01T04:40:01;16.50;99.90
14409;DHT22;7289;50.706;4.992;2023-08-01T04:42:32;16.50;99.90
14409;DHT22;7289;50.706;4.992;2023-08-01T04:45:00;16.60;99.90
14409;DHT22;7289;50.706;4.992;2023-08-01T04:47:30;16.70;99.90
14409;DHT22;7289;50.706;4.992;2023-08-01T04:49:59;16.70;99.90
14409;DHT22;7289;50.706;4.992;2023-08-01T04:52:27;16.70;99.90
14409;DHT22;7289;50.706;4.992;2023-08-01T04:54:55;16.70;99.90
14409;DHT22;7289;50.706;4.992;2023-08-01T04:57:24;16.70;99.90
14409;DHT22;7289;50.706;4.992;2023-08-01T04:59:52;16.80;99.90
14409;DHT22;7289;50.706;4.992;2023-08-01T05:02:20;16.70;99.90
14409;DHT22;7289;50.706;4.992;2023-08-01T05:04:51;16.70;99.90
14409;DHT22;7289;50.706;4.992;2023-08-01T05:07:19;16.70;99.90
14409;DHT22;7289;50.706;4.992;2023-08-01T05:09:48;16.80;99.90
14409;DHT22;7289;50.706;4.992;2023-08-01T05:12:16;16.70;99.90
14409;DHT22;7289;50.706;4.992;2023-08-01T05:14:44;16.70;99.90
14409;DHT22;7289;50.706;4.992;2023-08-01T05:17:13;16.50;99.90
14409;DHT22;7289;50.706;4.992;2023-08-01T05:19:41;16.50;99.90
14409;DHT22;7289;50.706;4.992;2023-08-01T05:22:11;16.50;99.90
14409;DHT22;7289;50.706;4.992;2023-08-01T05:24:39;16.50;99.90
14409;DHT22;7289;50.706;4.992;2023-08-01T05:27:07;16.60;99.90
14409;DHT22;7289;50.706;4.992;2023-08-01T05:29:36;16.60;99.90
14409;DHT22;7289;50.706;4.992;2023-08-01T05:32:04;16.60;99.90
14409;DHT22;7289;50.706;4.992;2023-08-01T05:34:33;16.60;99.90
14409;DHT22;7289;50.706;4.992;2023-08-01T05:37:01;16.60;99.90
14409;DHT22;7289;50.706;4.992;2023-08-01T05:39:31;16.70;99.90
14409;DHT22;7289;50.706;4.992;2023-08-01T05:41:59;16.70;99.90
14409;DHT22;7289;50.706;4.992;2023-08-01T05:44:27;16.80;99.90
14409;DHT22;7289;50.706;4.992;2023-08-01T05:46:56;17.00;99.90
14409;DHT22;7289;50.706;4.992;2023-08-01T05:49:24;17.20;99.90
14409;DHT22;7289;50.706;4.992;2023-08-01T05:51:52;17.30;99.90
14409;DHT22;7289;50.706;4.992;2023-08-01T05:54:21;17.40;99.90
14409;DHT22;7289;50.706;4.992;2023-08-01T05:56:50;17.50;99.90
14409;DHT22;7289;50.706;4.992;2023-08-01T05:59:19;17.70;99.90
14409;DHT22;7289;50.706;4.992;2023-08-01T06:01:47;17.70;99.90
14409;DHT22;7289;50.706;4.992;2023-08-01T06:04:15;17.70;99.90
14409;DHT22;7289;50.706;4.992;2023-08-01T06:06:44;17.80;99.90
14409;DHT22;7289;50.706;4.992;2023-08-01T06:09:12;17.80;99.90
14409;DHT22;7289;50.706;4.992;2023-08-01T06:11:41;17.90;99.90
14409;DHT22;7289;50.706;4.992;2023-08-01T06:14:10;17.90;99.90
14409;DHT22;7289;50.706;4.992;2023-08-01T06:16:39;18.00;99.90
14409;DHT22;7289;50.706;4.992;2023-08-01T06:19:08;18.10;99.90
14409;DHT22;7289;50.706;4.992;2023-08-01T06:21:36;18.10;99.90
14409;DHT22;7289;50.706;4.992;2023-08-01T06:24:04;18.30;99.90
14409;DHT22;7289;50.706;4.992;2023-08-01T06:26:33;18.30;99.90
14409;DHT22;7289;50.706;4.992;2023-08-01T06:29:01;18.30;99.90
14409;DHT22;7289;50.706;4.992;2023-08-01T06:31:30;18.30;99.90
14409;DHT22;7289;50.706;4.992;2023-08-01T06:33:59;18.30;99.90
14409;DHT22;7289;50.706;4.992;2023-08-01T06:36:27;18.30;99.90
14409;DHT22;7289;50.706;4.992;2023-08-01T06:38:55;18.20;99.90
14409;DHT22;7289;50.706;4.992;2023-08-01T06:41:24;18.10;99.90
14409;DHT22;7289;50.706;4.992;2023-08-01T06:43:53;18.10;99.90
14409;DHT22;7289;50.706;4.992;2023-08-01T06:46:21;18.20;99.90
14409;DHT22;7289;50.706;4.992;2023-08-01T06:48:51;18.20;99.90
14409;DHT22;7289;50.706;4.992;2023-08-01T06:51:20;18.30;99.90
14409;DHT22;7289;50.706;4.992;2023-08-01T06:53:48;18.30;99.90
14409;DHT22;7289;50.706;4.992;2023-08-01T06:56:16;18.40;99.90
14409;DHT22;7289;50.706;4.992;2023-08-01T06:58:45;18.50;99.90
14409;DHT22;7289;50.706;4.992;2023-08-01T07:01:13;18.50;99.90
14409;DHT22;7289;50.706;4.992;2023-08-01T07:03:42;18.60;99.90
14409;DHT22;7289;50.706;4.992;2023-08-01T07:06:11;18.70;99.90
14409;DHT22;7289;50.706;4.992;2023-08-01T07:08:40;18.80;99.90
14409;DHT22;7289;50.706;4.992;2023-08-01T07:11:08;18.80;99.90
14409;DHT22;7289;50.706;4.992;2023-08-01T07:13:36;18.80;99.90
14409;DHT22;7289;50.706;4.992;2023-08-01T07:16:04;19.00;99.90
14409;DHT22;7289;50.706;4.992;2023-08-01T07:18:33;19.10;99.90
14409;DHT22;7289;50.706;4.992;2023-08-01T07:21:02;19.10;99.90
14409;DHT22;7289;50.706;4.992;2023-08-01T07:23:34;19.10;99.90
14409;DHT22;7289;50.706;4.992;2023-08-01T07:26:03;19.40;99.90
14409;DHT22;7289;50.706;4.992;2023-08-01T07:28:31;19.40;99.90
14409;DHT22;7289;50.706;4.992;2023-08-01T07:31:01;19.50;99.90
14409;DHT22;7289;50.706;4.992;2023-08-01T07:33:29;19.50;99.90
14409;DHT22;7289;50.706;4.992;2023-08-01T07:35:58;19.60;99.90
14409;DHT22;7289;50.706;4.992;2023-08-01T07:38:26;19.90;99.90
14409;DHT22;7289;50.706;4.992;2023-08-01T07:40:56;20.10;99.90
14409;DHT22;7289;50.706;4.992;2023-08-01T07:43:26;20.30;99.90
14409;DHT22;7289;50.706;4.992;2023-08-01T07:45:56;20.30;99.90
14409;DHT22;7289;50.706;4.992;2023-08-01T07:48:24;20.50;99.90
14409;DHT22;7289;50.706;4.992;2023-08-01T07:50:53;20.40;99.90
14409;DHT22;7289;50.706;4.992;2023-08-01T07:53:22;20.20;99.90
14409;DHT22;7289;50.706;4.992;2023-08-01T07:55:52;20.10;99.90
14409;DHT22;7289;50.706;4.992;2023-08-01T07:58:22;20.30;99.90
14409;DHT22;7289;50.706;4.992;2023-08-01T08:00:51;20.20;99.90
14409;DHT22;7289;50.706;4.992;2023-08-01T08:03:19;20.20;99.90
14409;DHT22;7289;50.706;4.992;2023-08-01T08:05:49;20.20;99.90
14409;DHT22;7289;50.706;4.992;2023-08-01T08:08:18;20.20;99.90
14409;DHT22;7289;50.706;4.992;2023-08-01T08:10:46;20.30;99.90
14409;DHT22;7289;50.706;4.992;2023-08-01T08:13:14;20.40;99.90
14409;DHT22;7289;50.706;4.992;2023-08-01T08:15:44;20.50;99.90
14409;DHT22;7289;50.706;4.992;2023-08-01T08:18:13;20.40;99.90
14409;DHT22;7289;50.706;4.992;2023-08-01T08:20:44;20.40;99.90
14409;DHT22;7289;50.706;4.992;2023-08-01T08:23:12;20.40;99.90
14409;DHT22;7289;50.706;4.992;2023-08-01T08:25:42;20.50;99.90
14409;DHT22;7289;50.706;4.992;2023-08-01T08:28:12;20.80;99.90
14409;DHT22;7289;50.706;4.992;2023-08-01T08:30:41;21.00;99.90
14409;DHT22;7289;50.706;4.992;2023-08-01T08:33:19;20.90;99.90
14409;DHT22;7289;50.706;4.992;2023-08-01T08:35:48;21.00;99.90
14409;DHT22;7289;50.706;4.992;2023-08-01T08:38:17;20.90;99.90
14409;DHT22;7289;50.706;4.992;2023-08-01T08:40:55;20.80;99.90
14409;DHT22;7289;50.706;4.992;2023-08-01T08:43:29;20.70;99.90
14409;DHT22;7289;50.706;4.992;2023-08-01T08:46:00;20.60;99.90
14409;DHT22;7289;50.706;4.992;2023-08-01T08:48:30;20.40;99.90
14409;DHT22;7289;50.706;4.992;2023-08-01T08:51:00;20.40;99.90
14409;DHT22;7289;50.706;4.992;2023-08-01T08:53:31;20.50;99.90
14409;DHT22;7289;50.706;4.992;2023-08-01T08:56:00;20.60;99.90
14409;DHT22;7289;50.706;4.992;2023-08-01T08:58:30;20.80;99.90
14409;DHT22;7289;50.706;4.992;2023-08-01T09:01:00;21.20;99.90
14409;DHT22;7289;50.706;4.992;2023-08-01T09:03:31;21.30;99.90
14409;DHT22;7289;50.706;4.992;2023-08-01T09:06:04;21.40;99.90
14409;DHT22;7289;50.706;4.992;2023-08-01T09:08:39;21.60;99.90
14409;DHT22;7289;50.706;4.992;2023-08-01T09:11:08;21.80;99.90
14409;DHT22;7289;50.706;4.992;2023-08-01T09:13:38;21.60;99.90
14409;DHT22;7289;50.706;4.992;2023-08-01T09:16:06;21.30;99.90
14409;DHT22;7289;50.706;4.992;2023-08-01T09:18:48;20.90;99.90
14409;DHT22;7289;50.706;4.992;2023-08-01T09:21:18;20.80;99.90
14409;DHT22;7289;50.706;4.992;2023-08-01T09:23:47;20.50;99.90
14409;DHT22;7289;50.706;4.992;2023-08-01T09:26:15;20.20;99.90
14409;DHT22;7289;50.706;4.992;2023-08-01T09:28:44;20.10;99.90
14409;DHT22;7289;50.706;4.992;2023-08-01T09:31:26;19.80;99.90
14409;DHT22;7289;50.706;4.992;2023-08-01T09:33:59;19.60;99.90
14409;DHT22;7289;50.706;4.992;2023-08-01T09:36:28;19.60;99.90
14409;DHT22;7289;50.706;4.992;2023-08-01T09:38:59;19.70;99.90
14409;DHT22;7289;50.706;4.992;2023-08-01T09:41:28;19.80;99.90
14409;DHT22;7289;50.706;4.992;2023-08-01T09:43:57;19.90;99.90
14409;DHT22;7289;50.706;4.992;2023-08-01T09:46:26;19.90;99.90
14409;DHT22;7289;50.706;4.992;2023-08-01T09:49:08;20.10;99.90
14409;DHT22;7289;50.706;4.992;2023-08-01T09:51:46;20.60;99.90
14409;DHT22;7289;50.706;4.992;2023-08-01T09:54:16;20.90;99.90
14409;DHT22;7289;50.706;4.992;2023-08-01T09:56:47;21.10;99.90
14409;DHT22;7289;50.706;4.992;2023-08-01T09:59:19;21.10;99.90
14409;DHT22;7289;50.706;4.992;2023-08-01T10:01:48;20.80;99.90
14409;DHT22;7289;50.706;4.992;2023-08-01T10:04:23;20.70;99.90
14409;DHT22;7289;50.706;4.992;2023-08-01T10:06:57;20.50;99.90
14409;DHT22;7289;50.706;4.992;2023-08-01T10:09:27;20.40;99.90
14409;DHT22;7289;50.706;4.992;2023-08-01T10:11:57;20.40;99.90
14409;DHT22;7289;50.706;4.992;2023-08-01T10:14:26;20.40;99.90
14409;DHT22;7289;50.706;4.992;2023-08-01T10:16:55;20.50;99.90
14409;DHT22;7289;50.706;4.992;2023-08-01T10:19:26;20.60;99.90
14409;DHT22;7289;50.706;4.992;2023-08-01T10:21:54;20.50;99.90
14409;DHT22;7289;50.706;4.992;2023-08-01T10:24:24;20.50;99.90
14409;DHT22;7289;50.706;4.992;2023-08-01T10:26:56;20.50;99.90
14409;DHT22;7289;50.706;4.992;2023-08-01T10:29:34;20.30;99.90
14409;DHT22;7289;50.706;4.992;2023-08-01T10:32:06;20.20;99.90
14409;DHT22;7289;50.706;4.992;2023-08-01T10:34:37;20.10;99.90
14409;DHT22;7289;50.706;4.992;2023-08-01T10:37:05;20.20;99.90
14409;DHT22;7289;50.706;4.992;2023-08-01T10:39:35;20.30;99.90
14409;DHT22;7289;50.706;4.992;2023-08-01T10:42:04;20.70;99.90
14409;DHT22;7289;50.706;4.992;2023-08-01T10:44:45;21.00;99.90
14409;DHT22;7289;50.706;4.992;2023-08-01T10:47:13;21.00;99.90
14409;DHT22;7289;50.706;4.992;2023-08-01T10:49:44;21.40;99.90
14409;DHT22;7289;50.706;4.992;2023-08-01T10:52:17;21.70;99.90
14409;DHT22;7289;50.706;4.992;2023-08-01T10:54:46;22.00;99.90
14409;DHT22;7289;50.706;4.992;2023-08-01T10:57:18;22.50;99.60
14409;DHT22;7289;50.706;4.992;2023-08-01T10:59:46;22.50;98.80
14409;DHT22;7289;50.706;4.992;2023-08-01T11:02:20;22.50;98.70
14409;DHT22;7289;50.706;4.992;2023-08-01T11:04:57;22.60;99.00
14409;DHT22;7289;50.706;4.992;2023-08-01T11:07:26;22.70;98.30
14409;DHT22;7289;50.706;4.992;2023-08-01T11:10:03;22.70;97.80
14409;DHT22;7289;50.706;4.992;2023-08-01T11:12:34;22.90;98.60
14409;DHT22;7289;50.706;4.992;2023-08-01T11:15:04;23.00;97.10
14409;DHT22;7289;50.706;4.992;2023-08-01T11:17:35;23.00;96.70
14409;DHT22;7289;50.706;4.992;2023-08-01T11:20:07;23.00;96.60
14409;DHT22;7289;50.706;4.992;2023-08-01T11:22:37;23.20;96.00
14409;DHT22;7289;50.706;4.992;2023-08-01T11:25:06;23.40;96.70
14409;DHT22;7289;50.706;4.992;2023-08-01T11:27:34;23.20;95.20
14409;DHT22;7289;50.706;4.992;2023-08-01T11:30:04;23.50;95.80
14409;DHT22;7289;50.706;4.992;2023-08-01T11:32:33;23.70;96.10
14409;DHT22;7289;50.706;4.992;2023-08-01T11:35:02;23.90;96.70
14409;DHT22;7289;50.706;4.992;2023-08-01T11:37:32;24.00;95.10
14409;DHT22;7289;50.706;4.992;2023-08-01T11:40:03;24.30;95.60
14409;DHT22;7289;50.706;4.992;2023-08-01T11:42:32;24.30;95.80
14409;DHT22;7289;50.706;4.992;2023-08-01T11:45:08;24.30;94.20
14409;DHT22;7289;50.706;4.992;2023-08-01T11:47:37;24.50;94.50
14409;DHT22;7289;50.706;4.992;2023-08-01T11:50:06;24.20;94.00
14409;DHT22;7289;50.706;4.992;2023-08-01T11:52:36;24.00;94.00
14409;DHT22;7289;50.706;4.992;2023-08-01T11:55:08;23.80;94.40
14409;DHT22;7289;50.706;4.992;2023-08-01T11:57:52;23.40;95.30
14409;DHT22;7289;50.706;4.992;2023-08-01T12:00:24;23.20;94.60
14409;DHT22;7289;50.706;4.992;2023-08-01T12:03:03;23.20;94.90
14409;DHT22;7289;50.706;4.992;2023-08-01T12:05:35;23.00;94.80
14409;DHT22;7289;50.706;4.992;2023-08-01T12:08:12;22.90;94.50
14409;DHT22;7289;50.706;4.992;2023-08-01T12:10:41;23.20;94.70
14409;DHT22;7289;50.706;4.992;2023-08-01T12:13:19;23.40;94.70
14409;DHT22;7289;50.706;4.992;2023-08-01T12:15:49;23.60;94.90
14409;DHT22;7289;50.706;4.992;2023-08-01T12:18:21;23.70;94.00
14409;DHT22;7289;50.706;4.992;2023-08-01T12:21:09;23.80;94.30
14409;DHT22;7289;50.706;4.992;2023-08-01T12:23:40;23.80;94.40
14409;DHT22;7289;50.706;4.992;2023-08-01T12:26:08;24.00;94.80
14409;DHT22;7289;50.706;4.992;2023-08-01T12:28:37;23.90;94.60
14409;DHT22;7289;50.706;4.992;2023-08-01T12:31:05;24.10;93.90
14409;DHT22;7289;50.706;4.992;2023-08-01T12:33:33;24.10;93.50
14409;DHT22;7289;50.706;4.992;2023-08-01T12:36:02;24.30;93.70
14409;DHT22;7289;50.706;4.992;2023-08-01T12:38:30;24.60;93.40
14409;DHT22;7289;50.706;4.992;2023-08-01T12:41:01;24.80;92.70
14409;DHT22;7289;50.706;4.992;2023-08-01T12:43:30;24.80;92.40
14409;DHT22;7289;50.706;4.992;2023-08-01T12:45:59;24.70;92.40
14409;DHT22;7289;50.706;4.992;2023-08-01T12:48:28;24.40;92.20
14409;DHT22;7289;50.706;4.992;2023-08-01T12:50:56;24.10;92.90
14409;DHT22;7289;50.706;4.992;2023-08-01T12:53:25;24.10;93.00
14409;DHT22;7289;50.706;4.992;2023-08-01T12:56:00;24.20;93.10
14409;DHT22;7289;50.706;4.992;2023-08-01T12:58:28;24.30;92.70
14409;DHT22;7289;50.706;4.992;2023-08-01T13:00:57;24.20;92.00
14409;DHT22;7289;50.706;4.992;2023-08-01T13:03:26;24.10;92.50
14409;DHT22;7289;50.706;4.992;2023-08-01T13:05:58;23.90;92.10
14409;DHT22;7289;50.706;4.992;2023-08-01T13:08:28;23.80;93.50
14409;DHT22;7289;50.706;4.992;2023-08-01T13:10:57;23.80;93.30
14409;DHT22;7289;50.706;4.992;2023-08-01T13:13:28;23.90;93.00
14409;DHT22;7289;50.706;4.992;2023-08-01T13:15:56;24.00;92.30
14409;DHT22;7289;50.706;4.992;2023-08-01T13:18:25;24.10;91.50
14409;DHT22;7289;50.706;4.992;2023-08-01T13:20:53;24.20;91.80
14409;DHT22;7289;50.706;4.992;2023-08-01T13:23:21;24.20;91.50
14409;DHT22;7289;50.706;4.992;2023-08-01T13:25:50;24.20;91.90
14409;DHT22;7289;50.706;4.992;2023-08-01T13:28:18;24.30;92.30
14409;DHT22;7289;50.706;4.992;2023-08-01T13:30:48;24.10;93.10
14409;DHT22;7289;50.706;4.992;2023-08-01T13:33:16;24.10;93.10
14409;DHT22;7289;50.706;4.992;2023-08-01T13:35:44;24.00;92.60
14409;DHT22;7289;50.706;4.992;2023-08-01T13:38:13;23.80;91.80
14409;DHT22;7289;50.706;4.992;2023-08-01T13:40:41;24.10;91.30
14409;DHT22;7289;50.706;4.992;2023-08-01T13:43:09;24.40;92.20
14409;DHT22;7289;50.706;4.992;2023-08-01T13:45:38;24.20;91.00
14409;DHT22;7289;50.706;4.992;2023-08-01T13:48:07;24.30;91.50
14409;DHT22;7289;50.706;4.992;2023-08-01T13:50:36;24.30;91.80
14409;DHT22;7289;50.706;4.992;2023-08-01T13:53:04;24.00;91.40
14409;DHT22;7289;50.706;4.992;2023-08-01T13:55:34;23.90;90.80
14409;DHT22;7289;50.706;4.992;2023-08-01T13:58:03;23.80;90.90
14409;DHT22;7289;50.706;4.992;2023-08-01T14:00:32;23.90;90.80
14409;DHT22;7289;50.706;4.992;2023-08-01T14:03:00;23.80;90.00
14409;DHT22;7289;50.706;4.992;2023-08-01T14:05:31;23.60;90.30
14409;DHT22;7289;50.706;4.992;2023-08-01T14:07:59;23.80;88.80
14409;DHT22;7289;50.706;4.992;2023-08-01T14:10:29;23.90;90.10
14409;DHT22;7289;50.706;4.992;2023-08-01T14:12:58;23.90;90.50
14409;DHT22;7289;50.706;4.992;2023-08-01T14:15:26;24.10;90.70
14409;DHT22;7289;50.706;4.992;2023-08-01T14:17:55;24.10;90.40
14409;DHT22;7289;50.706;4.992;2023-08-01T14:20:23;24.00;90.10
14409;DHT22;7289;50.706;4.992;2023-08-01T14:22:53;23.80;90.70
14409;DHT22;7289;50.706;4.992;2023-08-01T14:25:21;23.80;91.40
14409;DHT22;7289;50.706;4.992;2023-08-01T14:27:49;23.80;91.10
14409;DHT22;7289;50.706;4.992;2023-08-01T14:30:17;23.90;91.00
14409;DHT22;7289;50.706;4.992;2023-08-01T14:32:46;24.20;91.10
14409;DHT22;7289;50.706;4.992;2023-08-01T14:35:14;24.40;90.10
14409;DHT22;7289;50.706;4.992;2023-08-01T14:37:42;24.60;90.60
14409;DHT22;7289;50.706;4.992;2023-08-01T14:40:16;24.30;90.40
14409;DHT22;7289;50.706;4.992;2023-08-01T14:42:45;24.00;91.20
14409;DHT22;7289;50.706;4.992;2023-08-01T14:45:13;24.00;91.70
14409;DHT22;7289;50.706;4.992;2023-08-01T14:47:42;24.00;91.60
14409;DHT22;7289;50.706;4.992;2023-08-01T14:50:11;24.10;91.70
14409;DHT22;7289;50.706;4.992;2023-08-01T14:52:41;23.90;91.80
14409;DHT22;7289;50.706;4.992;2023-08-01T14:55:09;24.00;91.60
14409;DHT22;7289;50.706;4.992;2023-08-01T14:57:39;23.70;91.50
14409;DHT22;7289;50.706;4.992;2023-08-01T15:00:08;23.40;91.90
14409;DHT22;7289;50.706;4.992;2023-08-01T15:02:37;23.20;92.50
14409;DHT22;7289;50.706;4.992;2023-08-01T15:05:06;23.20;93.10
14409;DHT22;7289;50.706;4.992;2023-08-01T15:07:34;23.40;92.50
14409;DHT22;7289;50.706;4.992;2023-08-01T15:10:09;23.30;91.80
14409;DHT22;7289;50.706;4.992;2023-08-01T15:12:39;23.00;92.60
14409;DHT22;7289;50.706;4.992;2023-08-01T15:15:09;22.80;93.60
14409;DHT22;7289;50.706;4.992;2023-08-01T15:17:37;22.70;93.50
14409;DHT22;7289;50.706;4.992;2023-08-01T15:20:06;22.60;93.50
14409;DHT22;7289;50.706;4.992;2023-08-01T15:22:35;22.50;94.00
14409;DHT22;7289;50.706;4.992;2023-08-01T15:25:03;22.40;93.70
14409;DHT22;7289;50.706;4.992;2023-08-01T15:27:32;22.30;93.70
14409;DHT22;7289;50.706;4.992;2023-08-01T15:30:02;22.10;93.40
14409;DHT22;7289;50.706;4.992;2023-08-01T15:32:30;21.90;93.50
14409;DHT22;7289;50.706;4.992;2023-08-01T15:34:59;21.70;93.40
14409;DHT22;7289;50.706;4.992;2023-08-01T15:37:28;21.50;93.00
14409;DHT22;7289;50.706;4.992;2023-08-01T15:39:56;21.30;93.10
14409;DHT22;7289;50.706;4.992;2023-08-01T15:42:24;21.20;93.40
14409;DHT22;7289;50.706;4.992;2023-08-01T15:44:53;21.20;93.70
14409;DHT22;7289;50.706;4.992;2023-08-01T15:47:23;21.30;94.00
14409;DHT22;7289;50.706;4.992;2023-08-01T15:49:51;21.30;94.20
14409;DHT22;7289;50.706;4.992;2023-08-01T15:52:20;21.30;94.10
14409;DHT22;7289;50.706;4.992;2023-08-01T15:54:49;21.30;94.60
14409;DHT22;7289;50.706;4.992;2023-08-01T15:57:17;21.20;94.20
14409;DHT22;7289;50.706;4.992;2023-08-01T15:59:46;21.30;94.60